Time;durP1;ratioP1;P1;durP2;ratioP2;P2;SDS_P1;SDS_P2;PMS_P1;PMS_P2;Temp;Humidity;BMP_temperature;BMP_pressure;BME280_temperature;BME280_humidity;BME280_pressure;Samples;Min_cycle;Max_cycle;Signal;HPM_P1;HPM_P2
2021/11/06 00:00:29;;;;;;;4.90;1.87;;;;;;;-145.18;100.00;60484.78;5057319;28;20063;-69
2021/11/06 00:02:55;;;;;;;7.30;2.67;;;;;;;-145.18;100.00;60484.78;5050824;28;20036;-69
2021/11/06 00:05:21;;;;;;;5.97;1.70;;;;;;;-145.18;100.00;60484.78;5058135;28;20059;-69
2021/11/06 00:07:46;;;;;;;8.87;2.43;;;;;;;-145.18;100.00;60484.78;5052904;28;20176;-70
2021/11/06 00:10:12;;;;;;;5.47;1.80;;;;;;;-145.18;100.00;60484.78;5060312;28;20024;-70
2021/11/06 00:12:39;;;;;;;5.30;1.70;;;;;;;-145.18;100.00;60484.78;5060827;28;20031;-70
2021/11/06 00:15:10;;;;;;;4.03;1.93;;;;;;;-145.18;100.00;60484.78;5056261;28;20280;-70
2021/11/06 00:17:37;;;;;;;7.00;2.37;;;;;;;-145.18;100.00;60484.78;5059948;28;20322;-70
2021/11/06 00:20:05;;;;;;;5.13;1.90;;;;;;;-145.18;100.00;60484.78;5059160;28;20035;-70
2021/11/06 00:22:32;;;;;;;7.60;1.87;;;;;;;-145.18;100.00;60484.78;5053721;28;20482;-69
2021/11/06 00:24:57;;;;;;;3.77;1.83;;;;;;;-145.18;100.00;60484.78;5059563;28;20112;-70
2021/11/06 00:27:23;;;;;;;6.07;1.80;;;;;;;-145.18;100.00;60484.78;5041286;28;20033;-72
2021/11/06 00:29:48;;;;;;;3.97;1.60;;;;;;;-145.18;100.00;60484.78;5059605;28;20047;-73
2021/11/06 00:32:14;;;;;;;4.27;1.63;;;;;;;-145.18;100.00;60484.78;5050178;28;20210;-69
2021/11/06 00:34:39;;;;;;;7.13;2.57;;;;;;;-145.18;100.00;60484.78;5049642;28;20028;-70
2021/11/06 00:37:05;;;;;;;7.80;2.13;;;;;;;-145.18;100.00;60484.78;5045953;28;20441;-69
2021/11/06 00:39:30;;;;;;;6.70;1.70;;;;;;;-145.18;100.00;60484.78;5056713;28;20214;-70
2021/11/06 00:41:56;;;;;;;4.83;2.30;;;;;;;-145.18;100.00;60484.78;5055967;28;20222;-69
2021/11/06 00:44:22;;;;;;;6.33;1.80;;;;;;;-145.18;100.00;60484.78;5055038;28;20030;-69
2021/11/06 00:46:49;;;;;;;8.93;1.97;;;;;;;-145.18;100.00;60484.78;5052161;28;20044;-69
2021/11/06 00:49:14;;;;;;;5.67;1.80;;;;;;;-145.18;100.00;60484.78;5057208;28;20211;-70
2021/11/06 00:51:39;;;;;;;4.43;1.80;;;;;;;-145.18;100.00;60484.78;5050221;28;20028;-69
2021/11/06 00:54:05;;;;;;;4.97;2.50;;;;;;;-145.18;100.00;60484.78;5045981;28;20389;-69
2021/11/06 00:56:30;;;;;;;5.53;2.07;;;;;;;-145.18;100.00;60484.78;5052966;28;20130;-69
2021/11/06 00:58:56;;;;;;;9.13;2.40;;;;;;;-145.18;100.00;60484.78;5053319;28;20499;-70
2021/11/06 01:01:21;;;;;;;6.37;1.87;;;;;;;-145.18;100.00;60484.78;5051153;28;20021;-70
2021/11/06 01:03:46;;;;;;;5.57;1.90;;;;;;;-145.18;100.00;60484.78;5046537;28;20116;-69
2021/11/06 01:06:12;;;;;;;9.77;1.80;;;;;;;-145.18;100.00;60484.78;5051521;28;20037;-69
2021/11/06 01:08:37;;;;;;;9.63;2.53;;;;;;;-145.18;100.00;60484.78;5044872;28;20039;-69
2021/11/06 01:11:03;;;;;;;6.47;2.27;;;;;;;-145.18;100.00;60484.78;5046900;28;20033;-70
2021/11/06 01:13:29;;;;;;;5.30;1.80;;;;;;;-145.18;100.00;60484.78;5029554;28;20020;-69
2021/11/06 01:15:55;;;;;;;5.93;2.20;;;;;;;-145.18;100.00;60484.78;5050198;28;20033;-70
2021/11/06 01:18:20;;;;;;;6.20;2.27;;;;;;;-145.18;100.00;60484.78;5045061;28;20029;-70
2021/11/06 01:20:46;;;;;;;9.50;2.33;;;;;;;-145.18;100.00;60484.78;5049935;28;20044;-70
2021/11/06 01:23:12;;;;;;;7.53;2.40;;;;;;;-145.18;100.00;60484.78;5051099;28;20052;-69
2021/11/06 01:25:37;;;;;;;5.57;2.03;;;;;;;-145.18;100.00;60484.78;5056235;28;20307;-69
2021/11/06 01:28:03;;;;;;;6.13;2.50;;;;;;;-145.18;100.00;60484.78;5046074;28;21431;-69
2021/11/06 01:30:28;;;;;;;5.73;2.10;;;;;;;-145.18;100.00;60484.78;5046581;28;20261;-69
2021/11/06 01:32:54;;;;;;;7.50;2.60;;;;;;;-145.18;100.00;60484.78;5046499;28;20085;-69
2021/11/06 01:35:20;;;;;;;6.07;2.50;;;;;;;-145.18;100.00;60484.78;5051501;28;20082;-70
2021/11/06 01:37:46;;;;;;;5.40;2.80;;;;;;;-145.18;100.00;60484.78;5047595;28;20188;-71
2021/11/06 01:40:16;;;;;;;5.73;2.80;;;;;;;-145.18;100.00;60484.78;5047806;28;20098;-70
2021/11/06 01:42:42;;;;;;;5.97;1.90;;;;;;;-145.18;100.00;60484.78;5048589;28;20037;-69
2021/11/06 01:45:09;;;;;;;6.57;2.00;;;;;;;-145.18;100.00;60484.78;5053073;28;20032;-70
2021/11/06 01:47:35;;;;;;;9.03;2.30;;;;;;;-145.18;100.00;60484.78;5053971;28;20036;-69
2021/11/06 01:50:01;;;;;;;6.90;2.53;;;;;;;-145.18;100.00;60484.78;5048211;28;20428;-70
2021/11/06 01:52:26;;;;;;;11.10;2.37;;;;;;;-145.18;100.00;60484.78;5051079;28;20021;-69
2021/11/06 01:54:52;;;;;;;4.37;2.60;;;;;;;-145.18;100.00;60484.78;5052519;28;20098;-69
2021/11/06 01:57:17;;;;;;;8.27;2.47;;;;;;;-145.18;100.00;60484.78;5048485;28;20025;-69
2021/11/06 01:59:44;;;;;;;10.03;2.77;;;;;;;-145.18;100.00;60484.78;5049053;28;20032;-70
2021/11/06 02:02:10;;;;;;;4.53;2.30;;;;;;;-145.18;100.00;60484.78;5054104;28;20058;-70
2021/11/06 02:04:36;;;;;;;8.93;2.60;;;;;;;-145.18;100.00;60484.78;5069926;22;20052;-65
2021/11/06 02:07:03;;;;;;;8.43;2.73;;;;;;;-145.18;100.00;60484.78;5072600;28;20487;-65
2021/11/06 02:09:28;;;;;;;8.50;2.33;;;;;;;-145.18;100.00;60484.78;5075981;28;20403;-65
2021/11/06 02:11:54;;;;;;;7.50;2.30;;;;;;;-145.18;100.00;60484.78;5071023;28;20020;-65
2021/11/06 02:14:20;;;;;;;4.67;2.03;;;;;;;-145.18;100.00;60484.78;5077661;28;20077;-65
2021/11/06 02:16:46;;;;;;;8.03;2.27;;;;;;;-145.18;100.00;60484.78;5076525;28;20066;-65
2021/11/06 02:19:11;;;;;;;6.73;2.40;;;;;;;-145.18;100.00;60484.78;5072027;28;20027;-65
2021/11/06 02:21:37;;;;;;;6.47;2.37;;;;;;;-145.18;100.00;60484.78;5074176;28;20024;-65
2021/11/06 02:24:03;;;;;;;5.07;1.97;;;;;;;-145.18;100.00;60484.78;5077095;28;20591;-65
2021/11/06 02:26:30;;;;;;;6.07;2.30;;;;;;;-145.18;100.00;60484.78;5076808;28;20117;-65
2021/11/06 02:28:58;;;;;;;6.43;2.07;;;;;;;-145.18;100.00;60484.78;5083463;28;20024;-65
2021/11/06 02:31:24;;;;;;;6.10;2.73;;;;;;;-145.18;100.00;60484.78;5082089;28;20108;-65
2021/11/06 02:33:51;;;;;;;7.83;2.03;;;;;;;-145.18;100.00;60484.78;5077135;28;20546;-65
2021/11/06 02:36:18;;;;;;;5.47;2.43;;;;;;;-145.18;100.00;60484.78;5073034;28;20024;-65
2021/11/06 02:38:43;;;;;;;6.57;2.67;;;;;;;-145.18;100.00;60484.78;5076732;28;20226;-65
2021/11/06 02:41:09;;;;;;;8.77;2.13;;;;;;;-145.18;100.00;60484.78;5077320;28;20549;-65
2021/11/06 02:43:34;;;;;;;9.50;2.80;;;;;;;-145.18;100.00;60484.78;5074775;28;20066;-65
2021/11/06 02:46:00;;;;;;;7.17;3.43;;;;;;;-145.18;100.00;60484.78;5076529;28;20121;-66
2021/11/06 02:48:26;;;;;;;7.97;2.60;;;;;;;-145.18;100.00;60484.78;5076620;28;20538;-65
2021/11/06 02:50:52;;;;;;;4.73;2.07;;;;;;;-145.18;100.00;60484.78;5077702;28;20027;-65
2021/11/06 02:53:17;;;;;;;4.90;2.27;;;;;;;-145.18;100.00;60484.78;5075938;28;20180;-65
2021/11/06 02:55:43;;;;;;;6.27;2.83;;;;;;;-145.18;100.00;60484.78;5076295;28;20480;-65
2021/11/06 02:58:08;;;;;;;9.60;2.93;;;;;;;-145.18;100.00;60484.78;5073423;28;20510;-66
2021/11/06 03:00:34;;;;;;;7.27;2.20;;;;;;;-145.18;100.00;60484.78;5075803;28;20024;-65
2021/11/06 03:02:59;;;;;;;5.90;2.30;;;;;;;-145.18;100.00;60484.78;5077064;28;20423;-65
2021/11/06 03:05:25;;;;;;;5.27;2.63;;;;;;;-145.18;100.00;60484.78;5075762;28;20109;-65
2021/11/06 03:07:51;;;;;;;6.57;2.53;;;;;;;-145.18;100.00;60484.78;5076787;28;20028;-65
2021/11/06 03:10:17;;;;;;;7.73;2.83;;;;;;;-145.18;100.00;60484.78;5077278;28;20020;-66
2021/11/06 03:12:44;;;;;;;8.80;3.00;;;;;;;-145.18;100.00;60484.78;5077288;28;20081;-66
2021/11/06 03:15:10;;;;;;;7.63;2.60;;;;;;;-145.18;100.00;60484.78;5076388;28;20197;-65
2021/11/06 03:17:35;;;;;;;7.97;3.13;;;;;;;-145.18;100.00;60484.78;5076967;28;20028;-65
2021/11/06 03:20:03;;;;;;;6.30;3.00;;;;;;;-145.18;100.00;60484.78;5075484;28;20272;-65
2021/11/06 03:22:28;;;;;;;6.57;2.87;;;;;;;-145.18;100.00;60484.78;5075155;28;20099;-65
2021/11/06 03:24:54;;;;;;;5.03;2.63;;;;;;;-145.18;100.00;60484.78;5078515;28;20028;-69
2021/11/06 03:27:19;;;;;;;6.87;3.10;;;;;;;-145.18;100.00;60484.78;5072875;28;20028;-69
2021/11/06 03:29:45;;;;;;;7.70;3.50;;;;;;;-145.18;100.00;60484.78;5080747;28;20016;-71
2021/11/06 03:32:11;;;;;;;7.90;3.53;;;;;;;-145.18;100.00;60484.78;5086985;28;20053;-71
2021/11/06 03:34:37;;;;;;;8.10;3.43;;;;;;;-145.18;100.00;60484.78;5079974;28;20150;-71
2021/11/06 03:37:04;;;;;;;7.83;3.23;;;;;;;-145.18;100.00;60484.78;5079726;28;20192;-72
2021/11/06 03:39:30;;;;;;;8.37;3.40;;;;;;;-145.18;100.00;60484.78;5074799;28;20107;-69
2021/11/06 03:41:55;;;;;;;10.03;3.70;;;;;;;-145.18;100.00;60484.78;5083603;28;20085;-70
2021/11/06 03:44:21;;;;;;;12.60;4.00;;;;;;;-145.18;100.00;60484.78;5081023;28;20178;-70
2021/11/06 03:46:47;;;;;;;13.50;4.27;;;;;;;-145.18;100.00;60484.78;5080288;28;20271;-70
2021/11/06 03:49:13;;;;;;;12.03;4.57;;;;;;;-145.18;100.00;60484.78;5079556;28;20028;-70
2021/11/06 03:51:38;;;;;;;7.87;4.37;;;;;;;-145.18;100.00;60484.78;5080954;28;20020;-70
2021/11/06 03:54:04;;;;;;;11.23;4.83;;;;;;;-145.18;100.00;60484.78;5080141;28;20024;-70
2021/11/06 03:56:30;;;;;;;12.20;5.17;;;;;;;-145.18;100.00;60484.78;5078641;28;20044;-70
2021/11/06 03:58:55;;;;;;;11.30;5.20;;;;;;;-145.18;100.00;60484.78;5078360;28;20020;-70
2021/11/06 04:01:21;;;;;;;11.03;5.13;;;;;;;-145.18;100.00;60484.78;5079791;28;20129;-70
2021/11/06 04:03:47;;;;;;;9.93;4.80;;;;;;;-145.18;100.00;60484.78;5077394;28;20072;-70
2021/11/06 04:06:14;;;;;;;17.27;5.60;;;;;;;-145.18;100.00;60484.78;5079912;28;20081;-70
2021/11/06 04:08:39;;;;;;;10.53;5.40;;;;;;;-145.18;100.00;60484.78;5076190;28;20028;-70
2021/11/06 04:11:05;;;;;;;10.93;5.37;;;;;;;-145.18;100.00;60484.78;5080118;28;20023;-70
2021/11/06 04:13:30;;;;;;;14.67;5.40;;;;;;;-145.18;100.00;60484.78;5076118;28;20439;-70
2021/11/06 04:15:56;;;;;;;17.73;5.80;;;;;;;-145.18;100.00;60484.78;5079916;28;20028;-70
2021/11/06 04:18:21;;;;;;;10.03;5.47;;;;;;;-145.18;100.00;60484.78;5079549;28;20118;-70
2021/11/06 04:20:47;;;;;;;12.87;5.40;;;;;;;-145.18;100.00;60484.78;5077892;28;20030;-70
2021/11/06 04:23:13;;;;;;;16.23;6.00;;;;;;;-145.18;100.00;60484.78;5077158;28;20119;-70
2021/11/06 04:25:38;;;;;;;12.50;5.80;;;;;;;-145.18;100.00;60484.78;5079240;28;20107;-70
2021/11/06 04:28:04;;;;;;;12.57;6.30;;;;;;;-145.18;100.00;60484.78;5078092;28;20363;-70
2021/11/06 04:30:29;;;;;;;11.33;5.73;;;;;;;-145.18;100.00;60484.78;5081959;28;20051;-70
2021/11/06 04:32:55;;;;;;;12.70;6.30;;;;;;;-145.18;100.00;60484.78;5080044;28;20063;-70
2021/11/06 04:35:21;;;;;;;12.00;5.30;;;;;;;-145.18;100.00;60484.78;5080504;28;20629;-70
2021/11/06 04:37:46;;;;;;;12.27;6.90;;;;;;;-145.18;100.00;60484.78;5079093;28;20028;-70
2021/11/06 04:40:13;;;;;;;14.07;6.23;;;;;;;-145.18;100.00;60484.78;5077874;28;20090;-70
2021/11/06 04:42:40;;;;;;;15.27;7.13;;;;;;;-145.18;100.00;60484.78;5079257;28;20396;-70
2021/11/06 04:45:07;;;;;;;10.93;5.97;;;;;;;-145.18;100.00;60484.78;5082981;28;20639;-70
2021/11/06 04:47:33;;;;;;;14.50;7.10;;;;;;;-145.18;100.00;60484.78;5083571;28;20103;-70
2021/11/06 04:49:59;;;;;;;12.90;6.73;;;;;;;-145.18;100.00;60484.78;5080549;28;20101;-70
2021/11/06 04:52:25;;;;;;;13.27;6.90;;;;;;;-145.18;100.00;60484.78;5077726;28;20019;-69
2021/11/06 04:54:51;;;;;;;16.93;6.53;;;;;;;-145.18;100.00;60484.78;5078844;28;20387;-69
2021/11/06 04:57:16;;;;;;;12.30;6.70;;;;;;;-145.18;100.00;60484.78;5079172;28;20024;-69
2021/11/06 04:59:42;;;;;;;15.73;6.97;;;;;;;-145.18;100.00;60484.78;5077303;28;20097;-69
2021/11/06 05:02:07;;;;;;;12.80;7.13;;;;;;;-145.18;100.00;60484.78;5078547;28;20043;-69
2021/11/06 05:04:33;;;;;;;14.90;7.87;;;;;;;-145.18;100.00;60484.78;5078596;28;20119;-69
2021/11/06 05:06:59;;;;;;;14.43;7.10;;;;;;;-145.18;100.00;60484.78;5079061;28;20400;-69
2021/11/06 05:09:24;;;;;;;16.53;7.30;;;;;;;-145.18;100.00;60484.78;5078253;28;20030;-69
2021/11/06 05:11:50;;;;;;;14.83;7.03;;;;;;;-145.18;100.00;60484.78;5078161;28;20181;-69
2021/11/06 05:14:16;;;;;;;12.77;6.67;;;;;;;-145.18;100.00;60484.78;5079433;28;20020;-69
2021/11/06 05:16:42;;;;;;;13.50;7.27;;;;;;;-145.18;100.00;60484.78;5076415;28;20240;-69
2021/11/06 05:19:07;;;;;;;14.37;7.30;;;;;;;-145.18;100.00;60484.78;5074336;28;20031;-69
2021/11/06 05:21:37;;;;;;;12.93;6.93;;;;;;;-145.18;100.00;60484.78;5069134;28;20020;-69
2021/11/06 05:24:07;;;;;;;15.90;7.30;;;;;;;-145.18;100.00;60484.78;5072131;28;20108;-71
2021/11/06 05:26:34;;;;;;;15.43;7.93;;;;;;;-145.18;100.00;60484.78;5078064;28;20734;-69
2021/11/06 05:29:03;;;;;;;13.87;7.33;;;;;;;-145.18;100.00;60484.78;5078827;28;20060;-69
2021/11/06 05:31:28;;;;;;;21.23;8.07;;;;;;;-145.18;100.00;60484.78;5077948;28;20395;-69
2021/11/06 05:33:54;;;;;;;13.93;7.90;;;;;;;-145.18;100.00;60484.78;5070598;28;20028;-69
2021/11/06 05:36:19;;;;;;;20.00;8.67;;;;;;;-145.18;100.00;60484.78;5077168;28;20254;-69
2021/11/06 05:38:45;;;;;;;16.67;8.17;;;;;;;-145.18;100.00;60484.78;5077550;28;20043;-69
2021/11/06 05:41:10;;;;;;;16.67;7.83;;;;;;;-145.18;100.00;60484.78;5076884;28;20520;-69
2021/11/06 05:43:35;;;;;;;16.00;8.93;;;;;;;-145.18;100.00;60484.78;5078840;28;20291;-69
2021/11/06 05:46:01;;;;;;;17.60;9.13;;;;;;;-145.18;100.00;60484.78;5078243;28;20024;-69
2021/11/06 05:48:26;;;;;;;17.63;8.67;;;;;;;-145.18;100.00;60484.78;5077567;28;20601;-70
2021/11/06 05:50:52;;;;;;;17.07;9.53;;;;;;;-145.18;100.00;60484.78;5077730;28;20276;-70
2021/11/06 05:53:17;;;;;;;22.13;10.00;;;;;;;-145.18;100.00;60484.78;5078676;28;20460;-71
2021/11/06 05:55:43;;;;;;;18.83;9.50;;;;;;;-145.18;100.00;60484.78;5068054;28;20031;-70
2021/11/06 05:58:08;;;;;;;18.00;8.63;;;;;;;-145.18;100.00;60484.78;5078688;28;20487;-71
2021/11/06 06:00:34;;;;;;;20.17;10.20;;;;;;;-145.18;100.00;60484.78;5076674;28;20032;-70
2021/11/06 06:03:00;;;;;;;21.20;9.90;;;;;;;-145.18;100.00;60484.78;5077283;28;20558;-71
2021/11/06 06:05:26;;;;;;;16.60;7.87;;;;;;;-145.18;100.00;60484.78;5073063;28;20047;-70
2021/11/06 06:07:52;;;;;;;20.40;9.70;;;;;;;-145.18;100.00;60484.78;5073893;28;20041;-70
2021/11/06 06:10:18;;;;;;;19.67;10.37;;;;;;;-145.18;100.00;60484.78;5070392;28;20380;-70
2021/11/06 06:12:46;;;;;;;17.90;9.70;;;;;;;-145.18;100.00;60484.78;5071358;28;20214;-70
2021/11/06 06:15:12;;;;;;;18.07;9.70;;;;;;;-145.18;100.00;60484.78;5077358;28;20268;-71
2021/11/06 06:17:38;;;;;;;16.80;8.40;;;;;;;-145.18;100.00;60484.78;5074552;28;20683;-71
2021/11/06 06:20:08;;;;;;;20.33;10.60;;;;;;;-145.18;100.00;60484.78;5077180;28;20028;-71
2021/11/06 06:22:34;;;;;;;20.53;9.87;;;;;;;-145.18;100.00;60484.78;5069031;28;20588;-71
2021/11/06 06:24:59;;;;;;;18.90;10.30;;;;;;;-145.18;100.00;60484.78;5070950;28;20029;-71
2021/11/06 06:27:25;;;;;;;18.70;10.33;;;;;;;-145.18;100.00;60484.78;5078371;28;20016;-71
2021/11/06 06:29:50;;;;;;;24.13;10.50;;;;;;;-145.18;100.00;60484.78;5077809;28;20020;-71
2021/11/06 06:32:15;;;;;;;19.40;9.80;;;;;;;-145.18;100.00;60484.78;5077549;28;20178;-71
2021/11/06 06:34:41;;;;;;;19.53;10.03;;;;;;;-145.18;100.00;60484.78;5068227;28;20036;-71
2021/11/06 06:37:06;;;;;;;22.90;10.03;;;;;;;-145.18;100.00;60484.78;5077599;28;20091;-71
2021/11/06 06:39:32;;;;;;;22.07;11.17;;;;;;;-145.18;100.00;60484.78;5077710;28;20506;-71
2021/11/06 06:41:57;;;;;;;19.33;9.37;;;;;;;-145.18;100.00;60484.78;5077484;28;20200;-71
2021/11/06 06:44:22;;;;;;;18.27;9.23;;;;;;;-145.18;100.00;60484.78;5077339;28;20028;-71
2021/11/06 06:46:48;;;;;;;19.63;9.60;;;;;;;-145.18;100.00;60484.78;5076707;28;20027;-71
2021/11/06 06:49:14;;;;;;;19.93;9.23;;;;;;;-145.18;100.00;60484.78;5076735;28;20384;-71
2021/11/06 06:51:39;;;;;;;17.90;9.17;;;;;;;-145.18;100.00;60484.78;5076782;28;20028;-71
2021/11/06 06:54:05;;;;;;;18.73;10.33;;;;;;;-145.18;100.00;60484.78;5077187;28;20278;-71
2021/11/06 06:56:31;;;;;;;20.60;9.53;;;;;;;-145.18;100.00;60484.78;5077220;28;20115;-71
2021/11/06 06:58:56;;;;;;;22.23;10.43;;;;;;;-145.18;100.00;60484.78;5077544;28;20174;-71
2021/11/06 07:01:21;;;;;;;23.07;10.97;;;;;;;-145.18;100.00;60484.78;5076648;28;20157;-71
2021/11/06 07:03:47;;;;;;;23.60;9.83;;;;;;;-145.18;100.00;60484.78;5076831;28;20036;-71
2021/11/06 07:06:12;;;;;;;21.90;8.80;;;;;;;-145.18;100.00;60484.78;5081880;28;20483;-71
2021/11/06 07:08:38;;;;;;;21.30;11.03;;;;;;;-145.18;100.00;60484.78;5071282;28;20027;-71
2021/11/06 07:11:03;;;;;;;23.40;11.53;;;;;;;-145.18;100.00;60484.78;5070828;28;20405;-71
2021/11/06 07:13:31;;;;;;;21.33;11.00;;;;;;;-145.18;100.00;60484.78;5081939;28;20504;-71
2021/11/06 07:15:57;;;;;;;21.87;9.87;;;;;;;-145.18;100.00;60484.78;5072915;28;20211;-71
2021/11/06 07:18:22;;;;;;;17.43;9.80;;;;;;;-145.18;100.00;60484.78;5081598;28;20024;-71
2021/11/06 07:20:48;;;;;;;19.47;9.17;;;;;;;-145.18;100.00;60484.78;5081214;28;20464;-69
2021/11/06 07:23:13;;;;;;;18.00;9.87;;;;;;;-145.18;100.00;60484.78;5090464;28;20325;-69
2021/11/06 07:25:39;;;;;;;20.37;10.63;;;;;;;-145.18;100.00;60484.78;5083443;28;20480;-69
2021/11/06 07:28:05;;;;;;;21.63;10.53;;;;;;;-145.18;100.00;60484.78;5081579;28;20249;-69
2021/11/06 07:30:31;;;;;;;20.37;10.60;;;;;;;-145.18;100.00;60484.78;5081323;28;20215;-69
2021/11/06 07:32:56;;;;;;;27.53;11.27;;;;;;;-145.18;100.00;60484.78;5081339;28;20359;-69
2021/11/06 07:35:25;;;;;;;21.93;11.47;;;;;;;-145.18;100.00;60484.78;5080688;28;20035;-69
2021/11/06 07:37:51;;;;;;;23.10;11.47;;;;;;;-145.18;100.00;60484.78;5080190;28;20051;-69
2021/11/06 07:40:16;;;;;;;26.27;11.53;;;;;;;-145.18;100.00;60484.78;5081274;28;20528;-69
2021/11/06 07:42:45;;;;;;;26.17;12.20;;;;;;;-145.18;100.00;60484.78;5081082;28;20052;-69
2021/11/06 07:45:12;;;;;;;25.60;12.93;;;;;;;-145.18;100.00;60484.78;5080843;28;20407;-69
2021/11/06 07:47:38;;;;;;;22.10;10.33;;;;;;;-145.18;100.00;60484.78;5081091;28;20016;-69
2021/11/06 07:50:05;;;;;;;23.93;14.20;;;;;;;-145.18;100.00;60484.78;5081093;28;20331;-69
2021/11/06 07:52:31;;;;;;;33.00;14.10;;;;;;;-145.18;100.00;60484.78;5081112;28;20507;-69
2021/11/06 07:54:56;;;;;;;28.07;12.50;;;;;;;-145.18;100.00;60484.78;5080828;28;20160;-69
2021/11/06 07:57:23;;;;;;;32.70;13.47;;;;;;;-145.18;100.00;60484.78;5080981;28;20016;-69
2021/11/06 07:59:48;;;;;;;28.07;13.80;;;;;;;-145.18;100.00;60484.78;5081375;28;20028;-69
2021/11/06 08:02:14;;;;;;;27.00;13.77;;;;;;;-145.18;100.00;60484.78;5072900;28;20068;-69
2021/11/06 08:04:40;;;;;;;26.33;12.03;;;;;;;-145.18;100.00;60484.78;5076686;28;20057;-69
2021/11/06 08:07:06;;;;;;;30.37;13.57;;;;;;;-145.18;100.00;60484.78;5081013;28;20557;-69
2021/11/06 08:09:31;;;;;;;28.43;14.23;;;;;;;-145.18;100.00;60484.78;5080457;28;20373;-69
2021/11/06 08:11:57;;;;;;;32.33;13.63;;;;;;;-145.18;100.00;60484.78;5081054;28;20298;-69
2021/11/06 08:14:22;;;;;;;31.50;14.23;;;;;;;-145.18;100.00;60484.78;5073588;28;20407;-69
2021/11/06 08:16:50;;;;;;;27.70;14.07;;;;;;;-145.18;100.00;60484.78;5079043;28;20038;-69
2021/11/06 08:19:16;;;;;;;34.97;15.20;;;;;;;-145.18;100.00;60484.78;5077370;28;20024;-69
2021/11/06 08:21:42;;;;;;;31.03;14.47;;;;;;;-145.18;100.00;60484.78;5080691;28;20388;-69
2021/11/06 08:24:07;;;;;;;28.00;14.30;;;;;;;-145.18;100.00;60484.78;5079188;28;20040;-69
2021/11/06 08:26:33;;;;;;;29.50;12.77;;;;;;;-145.18;100.00;60484.78;5072142;28;20016;-69
2021/11/06 08:28:59;;;;;;;30.87;13.73;;;;;;;-145.18;100.00;60484.78;5080536;28;20023;-69
2021/11/06 08:31:24;;;;;;;29.63;13.27;;;;;;;-145.18;100.00;60484.78;5075889;28;20032;-69
2021/11/06 08:33:50;;;;;;;34.87;14.80;;;;;;;-145.18;100.00;60484.78;5080483;28;20012;-69
2021/11/06 08:36:15;;;;;;;32.00;14.10;;;;;;;-145.18;100.00;60484.78;5080075;28;20023;-69
2021/11/06 08:38:40;;;;;;;25.40;12.17;;;;;;;-145.18;100.00;60484.78;5080910;28;20418;-69
2021/11/06 08:41:06;;;;;;;29.90;13.67;;;;;;;-145.18;100.00;60484.78;5080759;28;20427;-69
2021/11/06 08:43:33;;;;;;;27.63;12.27;;;;;;;-145.18;100.00;60484.78;5068146;28;20031;-69
2021/11/06 08:45:59;;;;;;;30.57;13.57;;;;;;;-145.18;100.00;60484.78;5080473;28;20490;-69
2021/11/06 08:48:25;;;;;;;28.00;13.13;;;;;;;-145.18;100.00;60484.78;5073124;28;20496;-69
2021/11/06 08:50:51;;;;;;;29.10;13.50;;;;;;;-145.18;100.00;60484.78;5080598;28;20233;-69
2021/11/06 08:53:16;;;;;;;30.03;12.77;;;;;;;-145.18;100.00;60484.78;5080083;28;20028;-69
2021/11/06 08:55:42;;;;;;;24.60;11.83;;;;;;;-145.18;100.00;60484.78;5078612;28;20020;-69
2021/11/06 08:58:07;;;;;;;26.47;12.50;;;;;;;-145.18;100.00;60484.78;5075457;28;20024;-69
2021/11/06 09:00:39;;;;;;;27.43;13.23;;;;;;;-145.18;100.00;60484.78;5077758;28;20542;-69
2021/11/06 09:03:11;;;;;;;29.30;13.20;;;;;;;-145.18;100.00;60484.78;5074629;28;20032;-69
2021/11/06 09:05:38;;;;;;;;;;;;;;;-145.18;100.00;60484.78;5076859;28;20204;-69
2021/11/06 09:08:03;;;;;;;30.97;12.80;;;;;;;-145.18;100.00;60484.78;5076722;28;19911;-69
2021/11/06 09:10:29;;;;;;;24.50;11.87;;;;;;;-145.18;100.00;60484.78;5074888;28;20030;-69
2021/11/06 09:12:56;;;;;;;31.60;12.43;;;;;;;-145.18;100.00;60484.78;5065338;28;20392;-69
2021/11/06 09:15:21;;;;;;;30.40;13.17;;;;;;;-145.18;100.00;60484.78;5066824;28;20032;-69
2021/11/06 09:17:49;;;;;;;28.30;13.17;;;;;;;-145.18;100.00;60484.78;5068200;28;20042;-69
2021/11/06 09:20:15;;;;;;;29.37;12.87;;;;;;;-145.18;100.00;60484.78;5071583;28;20024;-69
2021/11/06 09:22:40;;;;;;;26.37;12.57;;;;;;;-145.18;100.00;60484.78;5076269;28;20027;-69
2021/11/06 09:25:08;;;;;;;32.27;13.60;;;;;;;-145.18;100.00;60484.78;5069426;28;20515;-69
2021/11/06 09:27:34;;;;;;;25.97;12.13;;;;;;;-145.18;100.00;60484.78;5071800;28;20028;-69
2021/11/06 09:29:59;;;;;;;28.70;12.90;;;;;;;-145.18;100.00;60484.78;5069504;28;20028;-69
2021/11/06 09:32:25;;;;;;;28.53;12.17;;;;;;;-145.18;100.00;60484.78;5072017;28;20506;-69
2021/11/06 09:34:51;;;;;;;25.83;12.63;;;;;;;-145.18;100.00;60484.78;5066941;28;20490;-69
2021/11/06 09:37:16;;;;;;;25.17;13.00;;;;;;;-145.18;100.00;60484.78;5072308;28;20531;-69
2021/11/06 09:39:42;;;;;;;24.57;12.47;;;;;;;-145.18;100.00;60484.78;5071545;28;20107;-69
2021/11/06 09:42:13;;;;;;;27.13;13.40;;;;;;;-145.18;100.00;60484.78;5065283;28;20031;-69
2021/11/06 09:44:38;;;;;;;25.77;11.97;;;;;;;-145.18;100.00;60484.78;5068965;28;20035;-69
2021/11/06 09:47:08;;;;;;;24.37;12.00;;;;;;;-145.18;100.00;60484.78;5066199;28;20020;-69
2021/11/06 09:49:36;;;;;;;23.87;10.63;;;;;;;-145.18;100.00;60484.78;5069840;28;20581;-69
2021/11/06 09:52:01;;;;;;;27.03;12.50;;;;;;;-145.18;100.00;60484.78;5073587;28;20028;-69
2021/11/06 09:54:27;;;;;;;29.57;12.70;;;;;;;-145.18;100.00;60484.78;5070075;28;20055;-69
2021/11/06 09:56:53;;;;;;;27.00;10.93;;;;;;;-145.18;100.00;60484.78;5071594;28;20223;-69
2021/11/06 09:59:18;;;;;;;28.73;12.23;;;;;;;-145.18;100.00;60484.78;5069058;28;20027;-69
2021/11/06 10:01:44;;;;;;;25.57;12.17;;;;;;;-145.18;100.00;60484.78;5073089;28;20043;-69
2021/11/06 10:04:09;;;;;;;26.13;13.20;;;;;;;-145.18;100.00;60484.78;5074158;28;20048;-69
2021/11/06 10:06:45;;;;;;;23.33;11.47;;;;;;;-145.18;100.00;60484.78;5071076;28;20484;-69
2021/11/06 10:09:13;;;;;;;28.30;12.10;;;;;;;-145.18;100.00;60484.78;5074636;28;20053;-69
2021/11/06 10:11:45;;;;;;;22.73;10.83;;;;;;;-145.18;100.00;60484.78;5074389;28;20057;-69
2021/11/06 10:14:18;;;;;;;22.40;10.43;;;;;;;-145.18;100.00;60484.78;5073729;28;20032;-69
2021/11/06 10:16:55;;;;;;;25.73;11.97;;;;;;;-145.18;100.00;60484.78;5063747;28;20027;-70
2021/11/06 10:19:32;;;;;;;23.97;11.70;;;;;;;-145.18;100.00;60484.78;5070157;28;20312;-69
2021/11/06 10:22:12;;;;;;;22.07;9.40;;;;;;;-145.18;100.00;60484.78;5070961;28;20032;-69
2021/11/06 10:24:47;;;;;;;23.63;11.67;;;;;;;-145.18;100.00;60484.78;5062758;28;20028;-69
2021/11/06 10:27:13;;;;;;;23.03;10.37;;;;;;;-145.18;100.00;60484.78;5071070;28;20279;-69
2021/11/06 10:29:39;;;;;;;24.20;11.30;;;;;;;-145.18;100.00;60484.78;5075137;28;20242;-69
2021/11/06 10:32:05;;;;;;;20.60;9.40;;;;;;;-145.18;100.00;60484.78;5071335;28;20028;-69
2021/11/06 10:34:38;;;;;;;18.50;8.30;;;;;;;-145.18;100.00;60484.78;5075548;28;20499;-70
2021/11/06 10:37:11;;;;;;;18.83;9.57;;;;;;;-145.18;100.00;60484.78;5071946;28;20032;-69
2021/11/06 10:39:37;;;;;;;20.53;10.30;;;;;;;-145.18;100.00;60484.78;5068685;28;20035;-69
2021/11/06 10:42:15;;;;;;;20.10;10.13;;;;;;;-145.18;100.00;60484.78;5067813;28;20277;-69
2021/11/06 10:44:41;;;;;;;20.67;9.73;;;;;;;-145.18;100.00;60484.78;5067604;28;20028;-69
2021/11/06 10:47:09;;;;;;;21.67;9.53;;;;;;;-145.18;100.00;60484.78;5073194;28;20524;-69
2021/11/06 10:49:47;;;;;;;21.17;10.10;;;;;;;-145.18;100.00;60484.78;5071424;28;20035;-69
2021/11/06 10:52:19;;;;;;;21.50;9.73;;;;;;;-145.18;100.00;60484.78;5073729;28;20104;-70
2021/11/06 10:55:05;;;;;;;19.42;9.85;;;;;;;-145.18;100.00;60484.78;5071892;28;20506;-69
2021/11/06 10:57:31;;;;;;;20.63;9.03;;;;;;;-145.18;100.00;60484.78;5071539;28;20404;-69